Scroll down
FLIGHT INFORMATION
Japan Airlines

JAL123

At Arrival Gate

YSSY
 RJAA
DATE: 2021-02-15
GATE: 
GATE DEPARTURE: 02:50
TAKEOFF: 03:03
DATE: 2021-02-15
GATE:  -
LANDING: 12:10
GATE ARRIVAL: 12:18
FLIGHT DATA
Crew: 
Speed: 
905 kph
Altitude: 
40,057 ft
Stage Length: 
7,832.2 km
Block Time: 
9.4 hrs
Flight Time: 
9.1 hrs
Fuel Used: 
58,091 kg
Cleared Route: YSSY RIC GAZEL NBR HACHI NITTA OVRON NONIR APISO PY NZ PIKOK N0200.0E14600.0 NUTTI HUTEL SANDO TERYY TEGOD SAGOP NOGAK DAGDA IGLAN OLVEK MENIX VAGLA LUBLA RJAA
TRACK DATA
50,000 ft 1,000 kts
AIRCRAFT INFO AND CUMULATIVE STATS
Aircraft Type: 
B772
Registration: 
SELCAL: 
EJAH
MSN/LN: 
33395 / 525
Operator: 
Total Flights: 
1
Total Block Time: 
9.4 hrs
Total Flight Time: 
9.1 hrs
Total Fuel Used: 
58,091 kg
DATALINK LOG | Newest first | Current as of: 2022-10-05 22:37:36
LABEL SEQUENCE CONTENT Dn/Up
QD194212:18 11.7▼ Dn
QC113512:10▼ Dn
GA2058GATE PENDING▲ Up
GR2048RJAA 12:06 MAAS 00 YP/UM 00/00 WCHR/S/C 00/00/00 HI-VAL NO DIPL/VIP NO▼ Dn
2U0828RJAA 151030Z 30012KT 9999 FEW020 12/06 Q0987 NOSIG RMK 1CU020 A2915 P/RR▲ Up
2S0936RJAA▼ Dn
UM201756CLEARED TO FL 400▲ Up
DM61746REQUEST FL 400 DUE TO A/C PERF▼ Dn
5U5607RJBB 151352Z 28034G46KT 9999 FEW025 SCT050 13/08 Q0999▲ Up
5U5607PGSN 151352Z 10008KT 10SM VCSH FEW025 SCT050 27/23 A2985▲ Up
5U5658RJAA 151352Z 30014KT 9999 FEW030 12/07 Q0985▲ Up
5S5727PGSN RJBB▼ Dn
5S5727RJAA▼ Dn
2U5511RJBB 150930Z 26019KT 9999 FEW015 SCT040 13/08 Q0999 BECMG 28030G42KT▲ Up
2S5625RJBB▼ Dn
2U5428PGSN 150854Z 10005KT 10SM SCT020CB BKN100 27/23 A2985 RMK AO2 RAB19E28 SLP129 VCSH E CB OHD-E MOV SW P0000 60000 T02670233 53009▲ Up
2U5420RJAA 150930Z 27012KT 230V300 9999 FEW015 12/07 Q0985 TEMPO 30015G25KT RMK 1CU015 A2909▲ Up
2S5525PGSN▼ Dn
2S5524RJAA▼ Dn
UM204929CLEARED TO FL 390▲ Up
DM64919REQUEST FL 390 DUE TO WX▼ Dn
463505/OV TEGOD /TM 0933 /FL400 /TP B77F /TA -55 /WV 250/46 /RM HONK IF UR CORNY▼ Dn
461043/OV HUTEL /TM 0810 /FL380 /TP B77F /TA -49 /WV 114/13 /RM CUD A WUD CHK CHK▼ Dn
465224/OV NUTTI /TM 0751 /FL380 /TP B77F /TA -49 /WV 159/11 /RM HOW MUCH WOOD▼ Dn
461148/OV NITTA /TM 0411 /FL360 /TP B77F /TA -42 /WV 211/62 /RM COOL HWIP▼ Dn
QB034103:03▼ Dn
QA513002:50 140▼ Dn
A32920NO MATCHING FLIGHT DATA AVAILABLE FROM ANSP▲ Up
B32911YSSY RJAA JAL123 JA710J A ▼ Dn
2U2836YSSY 150200Z 19025KT 9999 FEW025 BKN040 21/16 Q1019▲ Up
2S2810YSSY▼ Dn
Q04932[LINK ACK]▲ Up
Q04932[LINK TEST]▼ Dn


AIRCRAFT HISTORY
FLIGHT DATE FLIGHT NO. ORIGIN DESTINATION CLEARED ROUTE BLOCK TIME FLIGHT TIME FUEL USED PILOT
2021-02-15JAL123YSSY RJAA YSSY RIC GAZEL NBR HACHI NITTA OVRON NONIR APISO PY NZ PIKOK N0200.0E14600.0 NUTTI HUTEL SANDO TERYY TEGOD SAGOP NOGAK DAGDA IGLAN OLVEK MENIX VAGLA LUBLA RJAA9.4 hrs9.1 hrs128,070 lb-SUSPENDED-